Time;durP1;ratioP1;P1;durP2;ratioP2;P2;SDS_P1;SDS_P2;PMS_P1;PMS_P2;Temp;Humidity;BMP_temperature;BMP_pressure;BME280_temperature;BME280_humidity;BME280_pressure;Samples;Min_cycle;Max_cycle;Signal;HPM_P1;HPM_P2
2023/06/13 00:00:35;;;;;;;4.30;3.50;;;;;;;25.89;56.17;100474.00;5095154;28;20040;-57
2023/06/13 00:03:02;;;;;;;3.83;3.00;;;;;;;25.89;56.32;100479.41;5094804;28;20529;-56
2023/06/13 00:05:31;;;;;;;4.53;3.25;;;;;;;25.89;56.25;100474.00;5093744;28;20058;-57
2023/06/13 00:07:58;;;;;;;4.43;3.42;;;;;;;25.89;56.20;100478.59;5094802;28;20048;-57
2023/06/13 00:10:25;;;;;;;4.68;3.83;;;;;;;25.91;56.20;100481.09;5094681;28;20051;-57
2023/06/13 00:12:53;;;;;;;5.05;3.42;;;;;;;25.91;56.23;100481.94;5093088;28;20055;-55
2023/06/13 00:15:20;;;;;;;5.80;3.58;;;;;;;25.91;56.12;100489.22;5094730;28;20044;-56
2023/06/13 00:17:48;;;;;;;3.97;3.58;;;;;;;25.90;56.15;100488.41;5094485;28;20048;-57
2023/06/13 00:20:16;;;;;;;4.55;3.20;;;;;;;25.90;56.20;100491.09;5094621;28;20395;-59
2023/06/13 00:22:45;;;;;;;4.85;3.47;;;;;;;25.90;56.09;100491.09;5094754;28;20044;-59
2023/06/13 00:25:12;;;;;;;4.03;3.25;;;;;;;25.90;56.10;100485.69;5094376;28;20055;-59
2023/06/13 00:27:39;;;;;;;4.93;3.38;;;;;;;25.90;55.99;100491.09;5093843;28;20052;-59
2023/06/13 00:30:07;;;;;;;4.90;3.83;;;;;;;25.91;56.04;100491.94;5094500;28;20040;-59
2023/06/13 00:32:35;;;;;;;4.70;3.28;;;;;;;25.90;56.11;100488.41;5093242;28;20052;-56
2023/06/13 00:35:02;;;;;;;4.97;3.85;;;;;;;25.91;56.08;100479.22;5094149;28;20353;-57
2023/06/13 00:37:34;;;;;;;5.15;3.40;;;;;;;25.89;56.14;100484.84;5094292;28;20059;-59
2023/06/13 00:40:02;;;;;;;4.93;3.35;;;;;;;25.90;56.11;100491.09;5092798;28;20052;-59
2023/06/13 00:42:31;;;;;;;4.35;3.40;;;;;;;25.90;56.10;100499.25;5093974;28;20052;-57
2023/06/13 00:45:27;;;;;;;4.03;3.17;;;;;;;25.88;56.09;100491.28;5094076;28;20036;-56
2023/06/13 00:48:04;;;;;;;4.07;3.50;;;;;;;25.89;56.10;100495.69;5092988;28;20051;-56
2023/06/13 00:50:34;;;;;;;4.22;3.38;;;;;;;25.90;56.18;100504.66;5092650;28;20055;-59
2023/06/13 00:53:08;;;;;;;3.67;3.00;;;;;;;25.90;56.18;100501.94;5092776;28;20404;-59
2023/06/13 00:55:37;;;;;;;4.18;3.45;;;;;;;25.90;56.02;100510.09;5092846;28;20059;-59
2023/06/13 00:58:06;;;;;;;3.80;3.28;;;;;;;25.90;56.01;100501.94;5094022;28;20059;-59
2023/06/13 01:00:35;;;;;;;3.78;3.08;;;;;;;25.91;56.11;100511.78;5092792;28;20056;-57
2023/06/13 01:03:07;;;;;;;3.92;3.08;;;;;;;25.92;56.07;100509.91;5093836;28;20052;-56
2023/06/13 01:05:38;;;;;;;4.10;3.50;;;;;;;25.92;56.09;100518.88;5094036;28;20048;-56
2023/06/13 01:08:13;;;;;;;3.97;3.42;;;;;;;25.91;56.08;100509.06;5093683;28;20118;-57
2023/06/13 01:10:40;;;;;;;4.07;3.60;;;;;;;25.91;56.15;100511.78;5093639;28;20491;-57
2023/06/13 01:13:24;;;;;;;4.68;3.50;;;;;;;25.91;56.08;100510.94;5094044;28;20063;-56
2023/06/13 01:16:01;;;;;;;3.85;3.22;;;;;;;25.93;56.12;100517.88;5092270;28;20048;-57
2023/06/13 01:18:31;;;;;;;4.03;3.40;;;;;;;25.91;56.00;100503.63;5093698;28;20048;-57
2023/06/13 01:21:00;;;;;;;4.20;3.20;;;;;;;25.91;55.95;100506.34;5093866;28;20055;-59
2023/06/13 01:23:58;;;;;;;5.32;3.47;;;;;;;25.90;56.09;100501.94;5092550;28;20059;-59
2023/06/13 01:26:42;;;;;;;3.67;3.08;;;;;;;25.89;55.90;100505.69;5088302;28;20055;-56
2023/06/13 01:29:10;;;;;;;5.40;3.63;;;;;;;25.89;55.88;100506.53;5093543;28;20051;-56
2023/06/13 01:31:40;;;;;;;4.03;2.42;;;;;;;25.88;55.87;100510.25;5093296;28;20040;-59
2023/06/13 01:34:10;;;;;;;3.90;3.30;;;;;;;25.89;56.02;100511.13;5093838;28;20052;-59
2023/06/13 01:36:38;;;;;;;8.18;4.20;;;;;;;25.89;55.94;100505.69;5093397;28;20051;-58
2023/06/13 01:39:06;;;;;;;4.32;2.95;;;;;;;25.89;55.72;100506.53;5095785;28;20044;-59
2023/06/13 01:41:33;;;;;;;3.47;2.95;;;;;;;25.89;55.71;100513.84;5096605;28;20052;-56
2023/06/13 01:44:04;;;;;;;5.85;3.40;;;;;;;25.89;55.83;100514.69;5097421;28;20047;-57
2023/06/13 01:47:01;;;;;;;6.00;3.33;;;;;;;25.89;55.83;100527.41;5097521;28;20040;-57
2023/06/13 01:49:48;;;;;;;4.93;3.47;;;;;;;25.88;55.78;100521.09;5097668;28;20048;-56
2023/06/13 01:52:25;;;;;;;3.92;2.95;;;;;;;25.89;55.44;100520.09;5097627;28;20055;-58
2023/06/13 01:55:00;;;;;;;6.07;3.20;;;;;;;25.87;55.69;100511.28;5095865;28;20055;-59
2023/06/13 01:57:36;;;;;;;4.10;2.97;;;;;;;25.89;55.60;100513.84;5096061;28;20052;-59
2023/06/13 02:00:04;;;;;;;3.75;3.20;;;;;;;25.89;55.39;100524.69;5095878;28;20063;-59
2023/06/13 02:02:42;;;;;;;4.28;3.20;;;;;;;25.88;55.64;100517.56;5103884;28;20051;-57
2023/06/13 02:05:11;;;;;;;4.60;3.65;;;;;;;25.88;55.54;100509.41;5097192;28;20075;-57
2023/06/13 02:07:39;;;;;;;4.38;3.42;;;;;;;25.88;55.48;100512.13;5095822;28;20411;-56
2023/06/13 02:10:06;;;;;;;5.28;3.53;;;;;;;25.87;55.43;100511.28;5097097;28;20044;-57
2023/06/13 02:12:36;;;;;;;3.88;3.15;;;;;;;25.88;55.41;100509.41;5095700;28;20048;-59
2023/06/13 02:15:03;;;;;;;3.60;3.00;;;;;;;25.86;55.50;100512.31;5095954;28;20048;-59
2023/06/13 02:17:31;;;;;;;4.35;3.15;;;;;;;25.87;55.55;100511.28;5096949;28;20114;-59
2023/06/13 02:19:59;;;;;;;4.53;3.10;;;;;;;25.87;55.55;100513.16;5095742;28;20044;-59
2023/06/13 02:22:26;;;;;;;4.18;3.00;;;;;;;25.87;55.38;100510.44;5096944;28;20048;-59
2023/06/13 02:24:54;;;;;;;4.22;3.30;;;;;;;25.87;55.26;100516.72;5096782;28;20051;-57
2023/06/13 02:27:21;;;;;;;4.78;3.50;;;;;;;25.86;55.13;100519.63;5095373;28;20056;-56
2023/06/13 02:29:48;;;;;;;4.65;3.05;;;;;;;25.85;55.21;100516.06;5096690;28;20484;-56
2023/06/13 02:32:16;;;;;;;3.78;3.20;;;;;;;25.84;55.20;100517.06;5078874;28;20048;-59
2023/06/13 02:34:44;;;;;;;5.15;3.35;;;;;;;25.84;54.99;100521.66;5096626;28;20044;-59
2023/06/13 02:37:11;;;;;;;3.78;2.90;;;;;;;25.84;55.13;100516.22;5095776;28;20412;-59
2023/06/13 02:39:39;;;;;;;4.85;3.30;;;;;;;25.83;55.06;100517.25;5096481;28;20375;-59
2023/06/13 02:42:06;;;;;;;4.60;3.15;;;;;;;25.83;54.98;100511.84;5095208;28;20043;-59
2023/06/13 02:44:34;;;;;;;5.13;3.15;;;;;;;25.80;55.26;100498.63;5095331;28;20055;-59
2023/06/13 02:47:01;;;;;;;4.43;3.40;;;;;;;25.80;55.00;100504.91;5096282;28;20055;-59
2023/06/13 02:49:29;;;;;;;3.80;3.15;;;;;;;25.80;55.15;100504.91;5095771;28;20048;-59
2023/06/13 02:51:56;;;;;;;4.95;3.25;;;;;;;25.80;55.25;100499.47;5094933;28;20059;-59
2023/06/13 02:54:23;;;;;;;4.85;3.33;;;;;;;25.81;55.21;100492.22;5096343;28;20059;-59
2023/06/13 02:56:51;;;;;;;4.13;3.10;;;;;;;25.80;55.24;100496.75;5096082;28;20051;-59
2023/06/13 02:59:19;;;;;;;5.70;3.55;;;;;;;25.80;55.26;100504.06;5096088;28;20040;-59
2023/06/13 03:01:47;;;;;;;4.30;3.60;;;;;;;25.79;55.16;100503.22;5094495;28;20071;-59
2023/06/13 03:04:18;;;;;;;4.60;3.50;;;;;;;25.79;55.29;100503.22;5094647;28;20488;-59
2023/06/13 03:06:46;;;;;;;3.83;3.20;;;;;;;25.80;55.37;100506.78;5094832;28;20059;-59
2023/06/13 03:09:15;;;;;;;3.72;3.17;;;;;;;25.80;55.28;100507.63;5094589;28;20066;-59
2023/06/13 03:11:43;;;;;;;3.53;3.20;;;;;;;25.80;55.26;100507.63;5096040;28;20040;-59
2023/06/13 03:14:11;;;;;;;4.80;3.13;;;;;;;25.81;55.34;100506.63;5094649;28;20058;-56
2023/06/13 03:16:38;;;;;;;3.72;2.85;;;;;;;25.80;55.31;100496.75;5094601;28;20392;-56
2023/06/13 03:19:06;;;;;;;4.97;3.00;;;;;;;25.81;55.50;100505.78;5094569;28;20056;-56
2023/06/13 03:21:33;;;;;;;3.67;2.78;;;;;;;25.81;55.67;100508.47;5094503;28;20044;-56
2023/06/13 03:24:01;;;;;;;6.70;2.95;;;;;;;25.80;55.56;100507.63;5094604;28;20401;-57
2023/06/13 03:26:37;;;;;;;4.28;2.97;;;;;;;25.81;55.58;100513.91;5095544;28;20056;-56
2023/06/13 03:29:08;;;;;;;5.70;3.15;;;;;;;25.81;55.44;100513.91;5094443;28;20052;-56
2023/06/13 03:31:35;;;;;;;4.00;2.97;;;;;;;25.81;55.44;100513.91;5095502;28;20044;-59
2023/06/13 03:34:03;;;;;;;3.70;2.90;;;;;;;25.82;55.46;100526.44;5095357;28;20044;-59
2023/06/13 03:36:33;;;;;;;5.60;3.20;;;;;;;25.81;55.48;100530.19;5095384;28;20055;-59
2023/06/13 03:39:02;;;;;;;4.35;3.33;;;;;;;25.81;55.25;100532.88;5094018;28;20055;-59
2023/06/13 03:41:31;;;;;;;4.95;3.33;;;;;;;25.80;55.37;100537.44;5094231;28;20056;-56
2023/06/13 03:43:58;;;;;;;5.15;3.17;;;;;;;25.81;55.43;100531.00;5094185;28;20059;-56
2023/06/13 03:46:25;;;;;;;4.32;2.70;;;;;;;25.82;55.42;100537.28;5094446;28;20055;-56
2023/06/13 03:48:54;;;;;;;4.53;3.25;;;;;;;25.81;55.43;100524.75;5094078;28;20059;-56
2023/06/13 03:51:22;;;;;;;4.18;3.30;;;;;;;25.80;55.33;100526.59;5095013;28;20051;-57
2023/06/13 03:53:49;;;;;;;5.20;3.50;;;;;;;25.79;55.49;100533.06;5093580;28;20074;-56
2023/06/13 03:56:17;;;;;;;3.72;2.88;;;;;;;25.80;55.36;100529.31;5094831;28;20329;-56
2023/06/13 03:58:44;;;;;;;4.72;3.30;;;;;;;25.79;55.58;100527.63;5093499;28;20048;-57
2023/06/13 04:01:11;;;;;;;4.22;2.80;;;;;;;25.80;55.47;100534.72;5092600;28;20052;-57
2023/06/13 04:03:42;;;;;;;4.90;3.40;;;;;;;25.79;55.60;100538.47;5093270;28;20059;-59
2023/06/13 04:06:10;;;;;;;4.15;3.60;;;;;;;25.79;55.66;100540.34;5094032;28;20075;-59
2023/06/13 04:08:38;;;;;;;4.13;3.30;;;;;;;25.79;55.56;100540.34;5093311;28;20052;-59
2023/06/13 04:11:06;;;;;;;4.82;4.00;;;;;;;25.77;55.81;100543.25;5093521;28;20389;-56
2023/06/13 04:13:33;;;;;;;4.20;3.22;;;;;;;25.77;55.83;100545.97;5093656;28;20048;-56
2023/06/13 04:16:00;;;;;;;3.97;3.40;;;;;;;25.77;55.89;100551.38;5094612;28;20044;-57
2023/06/13 04:18:29;;;;;;;5.22;3.38;;;;;;;25.78;55.97;100547.63;5093323;28;20067;-56
2023/06/13 04:20:59;;;;;;;5.13;3.58;;;;;;;25.78;56.03;100555.78;5094606;28;20055;-56
2023/06/13 04:23:27;;;;;;;4.00;3.10;;;;;;;25.78;56.13;100563.06;5094381;28;20044;-57
2023/06/13 04:25:55;;;;;;;4.07;3.25;;;;;;;25.77;56.25;100559.53;5094430;28;20048;-57
2023/06/13 04:28:24;;;;;;;4.30;3.35;;;;;;;25.77;56.27;100561.34;5093423;28;20056;-56
2023/06/13 04:30:52;;;;;;;4.32;3.33;;;;;;;25.77;56.47;100569.50;5093514;28;20048;-57
2023/06/13 04:33:21;;;;;;;4.10;3.55;;;;;;;25.77;56.32;100566.78;5093241;28;20110;-57
2023/06/13 04:35:49;;;;;;;5.35;3.67;;;;;;;25.77;56.53;100572.22;5094113;28;20047;-56
2023/06/13 04:38:21;;;;;;;6.47;3.58;;;;;;;25.78;56.52;100579.34;5094150;28;20044;-56
2023/06/13 04:40:49;;;;;;;3.70;3.35;;;;;;;25.76;56.55;100582.19;5094505;28;20055;-57
2023/06/13 04:43:16;;;;;;;3.88;3.45;;;;;;;25.77;56.59;100583.06;5094156;28;20036;-56
2023/06/13 04:45:44;;;;;;;4.38;3.53;;;;;;;25.77;56.71;100583.06;5094052;28;20054;-56
2023/06/13 04:48:11;;;;;;;5.30;3.30;;;;;;;25.76;56.86;100586.75;5093941;28;20048;-56
2023/06/13 04:50:44;;;;;;;5.28;3.55;;;;;;;25.75;57.03;100579.66;5094023;28;20047;-59
2023/06/13 04:53:11;;;;;;;5.38;3.72;;;;;;;25.76;56.94;100582.19;5093976;28;20094;-59
2023/06/13 04:55:39;;;;;;;5.07;3.60;;;;;;;25.75;57.16;100583.22;5094054;28;20044;-59
2023/06/13 04:58:06;;;;;;;4.50;3.78;;;;;;;25.75;56.97;100590.50;5093732;28;20048;-58
2023/06/13 05:00:34;;;;;;;7.78;3.55;;;;;;;25.75;57.23;100585.94;5093807;28;20040;-58
2023/06/13 05:03:02;;;;;;;5.32;3.28;;;;;;;25.75;57.28;100585.94;5093607;28;20407;-59
2023/06/13 05:05:29;;;;;;;5.43;3.90;;;;;;;25.75;57.33;100590.50;5093557;28;20044;-59
2023/06/13 05:08:00;;;;;;;7.97;3.95;;;;;;;25.74;57.33;100586.97;5093594;28;20044;-59
2023/06/13 05:10:27;;;;;;;4.18;3.63;;;;;;;25.75;57.31;100585.94;5093450;28;20051;-57
2023/06/13 05:12:55;;;;;;;4.72;3.75;;;;;;;25.74;57.25;100586.97;5093714;28;20488;-58
2023/06/13 05:15:23;;;;;;;4.50;3.33;;;;;;;25.75;57.40;100590.50;5093775;28;20036;-59
2023/06/13 05:17:54;;;;;;;5.35;3.90;;;;;;;25.75;57.25;100590.50;5093581;28;20055;-59
2023/06/13 05:20:26;;;;;;;4.32;3.85;;;;;;;25.75;57.38;100596.78;5093599;28;20055;-57
2023/06/13 05:22:54;;;;;;;5.55;4.20;;;;;;;25.75;57.45;100601.34;5092159;28;20052;-59
2023/06/13 05:25:21;;;;;;;4.82;3.88;;;;;;;25.75;57.33;100606.78;5093587;28;20040;-59
2023/06/13 05:27:53;;;;;;;5.53;3.80;;;;;;;25.74;57.34;100605.09;5093462;28;20070;-59
2023/06/13 05:30:21;;;;;;;4.93;3.63;;;;;;;25.75;57.22;100601.34;5093641;28;20498;-59
2023/06/13 05:32:50;;;;;;;5.32;3.80;;;;;;;25.74;57.29;100605.94;5093437;28;20468;-59
2023/06/13 05:35:17;;;;;;;4.55;3.10;;;;;;;25.74;57.32;100605.09;5093556;28;20051;-59
2023/06/13 05:37:46;;;;;;;3.78;3.10;;;;;;;25.74;57.42;100602.38;5093605;28;20044;-59
2023/06/13 05:40:13;;;;;;;5.93;3.60;;;;;;;25.75;57.28;100602.19;5093527;28;20048;-59
2023/06/13 05:42:41;;;;;;;6.40;4.00;;;;;;;25.74;57.50;100605.94;5093591;28;20494;-56
2023/06/13 05:45:09;;;;;;;5.05;3.50;;;;;;;25.74;57.07;100607.81;5093251;28;20063;-57
2023/06/13 05:47:36;;;;;;;4.60;3.42;;;;;;;25.73;57.28;100604.25;5093256;28;20044;-56
2023/06/13 05:50:05;;;;;;;5.35;3.60;;;;;;;25.74;57.32;100603.22;5093009;28;20060;-56
2023/06/13 05:52:33;;;;;;;5.78;3.83;;;;;;;25.74;57.11;100599.69;5092144;28;20052;-59
2023/06/13 05:55:01;;;;;;;4.35;3.58;;;;;;;25.73;57.30;100592.56;5093249;28;20048;-59
2023/06/13 05:57:42;;;;;;;4.25;3.58;;;;;;;25.74;57.19;100591.53;5093398;28;20059;-59
2023/06/13 06:00:13;;;;;;;4.15;3.28;;;;;;;25.74;57.27;100586.13;5093129;28;20052;-59
2023/06/13 06:02:44;;;;;;;3.92;3.47;;;;;;;25.73;57.24;100576.31;5093572;28;20048;-57
2023/06/13 06:05:11;;;;;;;4.22;3.72;;;;;;;25.74;57.23;100588.81;5093079;28;20044;-56
2023/06/13 06:07:43;;;;;;;5.32;3.85;;;;;;;25.73;57.26;100589.84;5093103;28;20063;-56
2023/06/13 06:10:12;;;;;;;4.43;3.47;;;;;;;25.74;57.18;100588.81;5091543;28;20052;-57
2023/06/13 06:12:40;;;;;;;5.43;3.42;;;;;;;25.73;57.08;100592.56;5093153;28;20044;-57
2023/06/13 06:15:08;;;;;;;3.88;3.50;;;;;;;25.73;57.14;100587.16;5093067;28;20040;-56
2023/06/13 06:17:35;;;;;;;4.50;3.42;;;;;;;25.73;57.18;100593.41;5093160;28;20411;-57
2023/06/13 06:20:06;;;;;;;3.67;3.00;;;;;;;25.74;57.10;100588.81;5093160;28;20118;-57
2023/06/13 06:22:35;;;;;;;5.07;3.72;;;;;;;25.74;57.16;100583.41;5092902;28;20044;-56
2023/06/13 06:25:02;;;;;;;4.18;2.92;;;;;;;25.73;57.15;100582.56;5095075;28;20055;-56
2023/06/13 06:27:30;;;;;;;4.97;3.55;;;;;;;25.74;57.04;100572.56;5096426;28;20055;-57
2023/06/13 06:29:57;;;;;;;4.97;3.25;;;;;;;25.73;57.04;100571.72;5096710;28;20055;-56
2023/06/13 06:32:25;;;;;;;3.47;3.03;;;;;;;25.74;57.14;100567.13;5096884;28;20047;-59
2023/06/13 06:34:54;;;;;;;5.75;3.78;;;;;;;25.73;57.06;100569.00;5096606;28;20048;-60
2023/06/13 06:37:22;;;;;;;4.03;3.47;;;;;;;25.74;56.92;100569.84;5096716;28;20055;-59
2023/06/13 06:39:50;;;;;;;4.38;3.58;;;;;;;25.73;57.22;100565.47;5096535;28;20055;-59
2023/06/13 06:42:17;;;;;;;6.40;4.10;;;;;;;25.74;57.15;100550.88;5096551;28;20040;-59
2023/06/13 06:45:05;;;;;;;4.75;3.80;;;;;;;25.74;56.94;100550.88;5096078;28;20488;-59
2023/06/13 06:47:33;;;;;;;4.00;3.60;;;;;;;25.74;57.08;100542.72;5096325;28;20063;-58
2023/06/13 06:50:00;;;;;;;5.15;3.50;;;;;;;25.74;56.90;100545.44;5096309;28;20048;-58
2023/06/13 06:52:28;;;;;;;4.15;3.25;;;;;;;25.74;56.86;100534.59;5096219;28;20484;-59
2023/06/13 06:54:55;;;;;;;4.25;3.20;;;;;;;25.75;56.92;100539.00;5096214;28;20044;-60
2023/06/13 06:57:23;;;;;;;8.45;3.70;;;;;;;25.75;56.95;100539.00;5095228;28;20044;-59
2023/06/13 06:59:51;;;;;;;5.80;3.72;;;;;;;25.75;56.97;100549.84;5094944;28;20052;-59
2023/06/13 07:02:18;;;;;;;4.43;3.50;;;;;;;25.75;56.88;100547.97;5096211;28;20044;-56
2023/06/13 07:04:46;;;;;;;5.78;3.55;;;;;;;25.76;56.86;100543.38;5096044;28;20388;-56
2023/06/13 07:07:13;;;;;;;4.60;3.45;;;;;;;25.78;56.92;100553.06;5095106;28;20044;-55
2023/06/13 07:09:41;;;;;;;4.97;3.47;;;;;;;25.79;57.05;100549.31;5083163;28;20048;-56
2023/06/13 07:12:08;;;;;;;5.22;3.80;;;;;;;25.81;57.07;100557.28;5093231;28;20048;-59
2023/06/13 07:14:36;;;;;;;6.53;3.53;;;;;;;25.82;57.32;100556.25;5095527;28;20039;-59
2023/06/13 07:17:04;;;;;;;4.40;3.53;;;;;;;25.83;57.24;100547.09;5095148;28;20047;-59
2023/06/13 07:19:31;;;;;;;6.15;3.75;;;;;;;25.84;57.37;100548.78;5095444;28;20479;-59
2023/06/13 07:21:59;;;;;;;6.05;3.45;;;;;;;25.85;57.39;100551.31;5095055;28;20052;-59
2023/06/13 07:24:31;;;;;;;5.32;3.30;;;;;;;25.84;57.34;100541.47;5095375;28;20036;-60
2023/06/13 07:26:59;;;;;;;4.40;3.20;;;;;;;25.84;57.29;100546.91;5094273;28;20044;-59
2023/06/13 07:29:26;;;;;;;4.53;3.30;;;;;;;25.85;57.01;100528.78;5095443;28;20040;-60
2023/06/13 07:31:54;;;;;;;4.20;3.63;;;;;;;25.85;56.65;100537.75;5095155;28;20055;-58
2023/06/13 07:34:21;;;;;;;6.30;4.05;;;;;;;25.83;56.36;100534.38;5095300;28;20472;-57
2023/06/13 07:37:10;;;;;;;7.93;4.30;;;;;;;25.80;56.32;100542.03;5094850;28;20050;-57
2023/06/13 07:39:37;;;;;;;6.05;3.50;;;;;;;25.77;56.10;100540.53;5095136;28;20040;-58
2023/06/13 07:42:06;;;;;;;5.20;3.95;;;;;;;25.76;56.00;100541.50;5094915;28;20048;-59
2023/06/13 07:44:33;;;;;;;4.68;3.42;;;;;;;25.75;55.97;100533.56;5095131;28;20457;-59
2023/06/13 07:47:01;;;;;;;4.38;3.95;;;;;;;25.74;55.93;100548.16;5094784;28;20055;-59
2023/06/13 07:49:29;;;;;;;6.28;3.90;;;;;;;25.74;55.94;100553.56;5082332;28;20045;-59
2023/06/13 07:51:56;;;;;;;6.28;4.07;;;;;;;25.74;55.98;100556.28;5088789;28;20052;-59
2023/06/13 07:54:24;;;;;;;4.32;3.38;;;;;;;25.73;56.06;100551.91;5094276;28;20403;-58
2023/06/13 07:56:52;;;;;;;6.95;3.72;;;;;;;25.72;56.01;100559.16;5081010;28;20392;-57
2023/06/13 07:59:19;;;;;;;4.72;3.63;;;;;;;25.72;56.23;100566.47;5074376;28;20055;-53
2023/06/13 08:01:46;;;;;;;5.03;3.33;;;;;;;25.61;55.74;100559.59;5074374;28;20056;-59
2023/06/13 08:04:14;;;;;;;4.45;3.60;;;;;;;25.51;55.79;100562.53;5073720;28;20036;-59
2023/06/13 08:06:42;;;;;;;4.85;3.90;;;;;;;25.44;55.94;100550.72;5073963;28;20052;-59
2023/06/13 08:09:11;;;;;;;5.30;3.95;;;;;;;25.40;56.10;100554.78;5073882;28;20485;-59
2023/06/13 08:11:39;;;;;;;4.82;3.50;;;;;;;25.34;55.83;100553.66;5074020;28;20048;-54
2023/06/13 08:14:12;;;;;;;6.22;4.38;;;;;;;25.26;56.08;100553.69;5073809;28;20048;-55
2023/06/13 08:16:43;;;;;;;5.43;3.60;;;;;;;25.27;55.94;100555.38;5072703;28;20055;-54
2023/06/13 08:19:11;;;;;;;5.38;3.90;;;;;;;25.27;55.64;100554.53;5074005;28;20496;-54
2023/06/13 08:21:38;;;;;;;5.88;3.92;;;;;;;25.28;55.63;100558.94;5074140;28;20056;-53
2023/06/13 08:24:05;;;;;;;6.15;3.85;;;;;;;25.27;55.70;100562.66;5077948;28;20457;-56
2023/06/13 08:26:33;;;;;;;5.72;3.67;;;;;;;25.28;55.67;100556.22;5073481;28;20087;-56
2023/06/13 08:29:01;;;;;;;4.57;3.40;;;;;;;25.27;55.64;100554.53;5073552;28;20044;-55
2023/06/13 08:31:31;;;;;;;4.80;3.30;;;;;;;25.29;55.44;100556.06;5073525;28;20043;-58
2023/06/13 08:34:03;;;;;;;4.20;3.60;;;;;;;25.30;55.58;100548.78;5072665;28;20056;-58
2023/06/13 08:36:38;;;;;;;4.63;3.65;;;;;;;25.32;55.50;100549.44;5073675;28;20071;-58
2023/06/13 08:39:06;;;;;;;4.88;3.95;;;;;;;25.32;55.51;100554.84;5073230;28;20064;-58
2023/06/13 08:41:36;;;;;;;5.57;3.70;;;;;;;25.34;55.35;100544.69;5073689;28;20515;-58
2023/06/13 08:44:04;;;;;;;6.95;3.83;;;;;;;25.37;55.67;100542.47;5073175;28;20518;-58
2023/06/13 08:46:33;;;;;;;6.55;4.43;;;;;;;25.40;55.54;100539.41;5073445;28;20500;-58
2023/06/13 08:49:01;;;;;;;4.90;3.72;;;;;;;25.41;55.77;100540.25;5073166;28;20048;-58
2023/06/13 08:51:30;;;;;;;5.00;3.65;;;;;;;25.43;55.85;100527.34;5080125;28;20047;-60
2023/06/13 08:54:02;;;;;;;8.18;3.97;;;;;;;25.45;55.67;100538.88;5093866;28;20047;-60
2023/06/13 08:56:51;;;;;;;5.80;4.18;;;;;;;25.49;55.70;100536.66;5083752;28;20044;-61
2023/06/13 08:59:30;;;;;;;5.13;4.10;;;;;;;25.50;55.37;100539.16;5072929;28;20055;-61
2023/06/13 09:01:57;;;;;;;6.90;3.85;;;;;;;25.51;55.51;100535.44;5073614;28;20067;-58
2023/06/13 09:04:27;;;;;;;5.40;3.80;;;;;;;25.52;55.55;100530.84;5073276;28;20041;-58
2023/06/13 09:06:59;;;;;;;5.25;3.95;;;;;;;25.52;55.49;100534.44;5073058;28;20040;-60
2023/06/13 09:09:27;;;;;;;5.00;3.97;;;;;;;25.54;55.53;100540.50;5073106;28;20055;-60
2023/06/13 09:11:55;;;;;;;6.50;4.03;;;;;;;25.56;55.67;100546.59;5073365;28;20059;-58
2023/06/13 09:14:23;;;;;;;4.80;3.92;;;;;;;25.54;55.53;100540.50;5072230;28;20044;-58
2023/06/13 09:16:54;;;;;;;6.45;3.22;;;;;;;25.53;55.57;100538.81;5073541;28;20051;-58
2023/06/13 09:19:21;;;;;;;4.70;4.03;;;;;;;25.52;55.51;100534.44;5073577;28;20056;-60
2023/06/13 09:21:49;;;;;;;5.15;4.00;;;;;;;25.49;55.54;100537.47;5081131;28;20040;-60
2023/06/13 09:24:17;;;;;;;4.90;3.80;;;;;;;25.48;55.62;100530.38;5092849;28;20392;-61
2023/06/13 09:26:45;;;;;;;5.97;3.97;;;;;;;25.44;55.73;100526.31;5093102;28;20056;-59
2023/06/13 09:29:12;;;;;;;4.82;3.80;;;;;;;25.42;55.75;100533.81;5092953;28;20044;-59
2023/06/13 09:31:58;;;;;;;4.63;3.90;;;;;;;25.40;55.55;100527.69;5093034;28;20395;-60
2023/06/13 09:34:29;;;;;;;6.13;4.15;;;;;;;25.36;55.57;100524.53;5093171;28;20488;-60
2023/06/13 09:36:58;;;;;;;5.70;4.03;;;;;;;25.34;55.77;100533.84;5093245;28;20395;-61
2023/06/13 09:39:27;;;;;;;4.53;3.35;;;;;;;25.32;55.77;100523.19;5093202;28;20475;-61
2023/06/13 09:41:56;;;;;;;7.20;4.60;;;;;;;25.31;55.58;100528.78;5092817;28;20063;-60
2023/06/13 09:44:24;;;;;;;4.38;3.97;;;;;;;25.28;55.54;100529.13;5093174;28;20388;-60
2023/06/13 09:46:53;;;;;;;5.93;3.78;;;;;;;25.25;55.74;100529.50;5092935;28;20052;-60
2023/06/13 09:49:21;;;;;;;5.05;4.32;;;;;;;25.26;55.76;100525.78;5093287;28;20059;-60
2023/06/13 09:51:50;;;;;;;8.30;4.40;;;;;;;25.24;55.94;100514.25;5092691;28;20040;-57
2023/06/13 09:54:18;;;;;;;4.93;4.05;;;;;;;25.24;55.80;100514.25;5093071;28;20499;-60
2023/06/13 09:56:45;;;;;;;4.45;3.60;;;;;;;25.24;56.16;100517.84;5092787;28;20423;-60
2023/06/13 09:59:17;;;;;;;4.68;3.70;;;;;;;25.26;56.17;100509.50;5093897;28;20043;-59
2023/06/13 10:01:47;;;;;;;4.35;3.75;;;;;;;25.29;56.47;100511.88;5095794;28;20048;-59
2023/06/13 10:04:16;;;;;;;7.05;4.18;;;;;;;25.30;56.18;100502.72;5097065;28;20444;-59
2023/06/13 10:06:43;;;;;;;4.68;3.65;;;;;;;25.32;56.24;100509.66;5091915;28;20056;-55
2023/06/13 10:09:12;;;;;;;5.32;4.03;;;;;;;25.31;55.98;100505.22;5076662;28;20047;-56
2023/06/13 10:11:47;;;;;;;5.13;4.32;;;;;;;25.28;55.52;100491.19;5080816;28;20045;-51
2023/06/13 10:14:21;;;;;;;6.03;3.95;;;;;;;25.25;55.31;100491.56;5096691;28;20388;-51
2023/06/13 10:16:56;;;;;;;7.75;4.18;;;;;;;25.27;55.04;100486.81;5096609;28;20055;-50
2023/06/13 10:19:39;;;;;;;5.55;4.53;;;;;;;25.31;55.33;100477.28;5096793;28;20047;-56
2023/06/13 10:22:08;;;;;;;4.55;3.83;;;;;;;25.30;55.24;100475.63;5095988;28;20405;-52
2023/06/13 10:24:37;;;;;;;4.72;3.58;;;;;;;25.32;54.79;100476.25;5096235;28;20036;-50
2023/06/13 10:27:06;;;;;;;5.57;4.00;;;;;;;25.33;54.71;100469.84;5096164;28;20052;-50
2023/06/13 10:29:58;;;;;;;6.78;3.70;;;;;;;25.35;54.53;100465.06;5096659;28;20047;-51
2023/06/13 10:32:47;;;;;;;5.18;3.95;;;;;;;25.37;54.81;100452.22;5095806;28;20048;-51
2023/06/13 10:35:33;;;;;;;4.93;4.05;;;;;;;25.37;54.57;100452.22;5096139;28;20040;-54
2023/06/13 10:38:33;;;;;;;4.82;4.03;;;;;;;25.36;54.03;100447.78;5095711;28;20047;-56
2023/06/13 10:41:11;;;;;;;4.80;3.72;;;;;;;25.38;54.41;100459.31;5095056;28;20067;-51
2023/06/13 10:43:55;;;;;;;5.07;4.10;;;;;;;25.38;54.30;100448.47;5096042;28;20051;-50
2023/06/13 10:46:23;;;;;;;4.78;3.60;;;;;;;25.41;54.15;100439.97;5095481;28;20060;-53
2023/06/13 10:48:52;;;;;;;4.25;3.67;;;;;;;25.40;54.05;100449.09;5077828;28;20053;-53
2023/06/13 10:51:25;;;;;;;4.72;3.60;;;;;;;25.42;54.26;100451.66;5074898;28;20393;-56
2023/06/13 10:54:08;;;;;;;5.07;3.95;;;;;;;25.42;54.31;100432.69;5075592;28;20380;-54
2023/06/13 10:56:42;;;;;;;5.63;4.03;;;;;;;25.43;54.68;100434.38;5081455;28;20400;-57
2023/06/13 10:59:12;;;;;;;4.63;3.92;;;;;;;25.44;54.85;100431.47;5096025;28;20051;-57
2023/06/13 11:01:41;;;;;;;4.60;3.58;;;;;;;25.45;54.91;100429.63;5095344;28;20513;-55
2023/06/13 11:04:17;;;;;;;4.00;3.15;;;;;;;25.45;54.80;100444.00;5095245;28;20051;-56
2023/06/13 11:06:47;;;;;;;4.65;3.88;;;;;;;25.47;55.03;100433.81;5095311;28;20487;-56
2023/06/13 11:09:23;;;;;;;4.78;4.25;;;;;;;25.45;55.29;100421.50;5095078;28;20051;-56
2023/06/13 11:11:54;;;;;;;4.63;3.92;;;;;;;25.47;55.25;100431.09;5094476;28;20051;-56
2023/06/13 11:14:24;;;;;;;6.88;3.90;;;;;;;25.46;55.37;100418.59;5095249;28;20048;-54
2023/06/13 11:16:52;;;;;;;6.05;4.10;;;;;;;25.48;55.54;100421.09;5094795;28;20055;-56
2023/06/13 11:19:26;;;;;;;5.63;4.00;;;;;;;25.46;55.51;100421.31;5095337;28;20051;-58
2023/06/13 11:22:00;;;;;;;4.65;3.58;;;;;;;25.48;55.60;100419.25;5094883;28;20048;-56
2023/06/13 11:24:30;;;;;;;5.43;4.07;;;;;;;25.49;55.69;100418.22;5095579;28;20052;-56
2023/06/13 11:27:06;;;;;;;5.53;3.63;;;;;;;25.49;55.58;100420.94;5094776;28;20058;-57
2023/06/13 11:29:34;;;;;;;4.18;3.67;;;;;;;25.50;55.43;100417.19;5095015;28;20488;-56
2023/06/13 11:32:04;;;;;;;5.88;3.63;;;;;;;25.53;55.66;100421.44;5094868;28;20039;-58
2023/06/13 11:34:34;;;;;;;5.57;3.58;;;;;;;25.53;55.49;100413.28;5095046;28;20052;-59
2023/06/13 11:37:05;;;;;;;4.28;3.60;;;;;;;25.54;55.51;100410.38;5094998;28;20051;-59